Time;durP1;ratioP1;P1;durP2;ratioP2;P2;SDS_P1;SDS_P2;PMS_P1;PMS_P2;Temp;Humidity;BMP_temperature;BMP_pressure;BME280_temperature;BME280_humidity;BME280_pressure;Samples;Min_cycle;Max_cycle;Signal;HPM_P1;HPM_P2
2022/10/03 00:02:38;;;;;;;10.35;7.85;;;9.90;99.90;;;;;;5022844;28;20197;-75
2022/10/03 00:05:55;;;;;;;8.88;7.57;;;9.90;99.90;;;;;;5008586;28;20177;-75
2022/10/03 00:09:08;;;;;;;7.90;6.80;;;9.90;99.90;;;;;;4999650;28;20223;-75
2022/10/03 00:11:40;;;;;;;10.50;7.30;;;10.00;99.90;;;;;;4982466;28;20767;-75
2022/10/03 00:14:28;;;;;;;9.20;7.88;;;9.90;99.90;;;;;;5011011;28;20341;-75
2022/10/03 00:17:20;;;;;;;11.40;7.43;;;9.90;99.90;;;;;;5009890;28;20197;-76
2022/10/03 00:20:18;;;;;;;11.88;7.32;;;9.90;99.90;;;;;;5022698;28;20191;-75
2022/10/03 00:23:13;;;;;;;11.50;7.05;;;9.80;99.90;;;;;;5018076;28;20592;-75
2022/10/03 00:25:53;;;;;;;7.80;6.93;;;9.90;99.90;;;;;;5002148;28;20181;-76
2022/10/03 00:28:24;;;;;;;7.35;6.38;;;9.90;99.90;;;;;;5005550;28;20180;-75
2022/10/03 00:31:12;;;;;;;11.02;7.55;;;9.90;99.90;;;;;;5002638;28;20216;-76
2022/10/03 00:33:45;;;;;;;9.30;7.30;;;9.80;99.90;;;;;;5006924;28;20209;-75
2022/10/03 00:36:34;;;;;;;10.23;7.72;;;9.80;99.90;;;;;;5008408;28;20209;-75
2022/10/03 00:39:16;;;;;;;11.32;8.30;;;9.90;99.90;;;;;;5002329;28;20256;-76
2022/10/03 00:41:44;;;;;;;16.85;8.07;;;9.80;99.90;;;;;;5008203;28;20201;-74
2022/10/03 00:44:28;;;;;;;8.57;7.68;;;9.80;99.90;;;;;;5022291;28;20181;-74
2022/10/03 00:47:14;;;;;;;9.82;7.80;;;9.70;99.90;;;;;;5006243;28;20188;-75
2022/10/03 00:50:05;;;;;;;11.15;8.55;;;9.70;99.90;;;;;;5001975;28;20271;-75
2022/10/03 00:52:45;;;;;;;9.75;7.53;;;9.70;99.90;;;;;;5005383;28;20698;-76
2022/10/03 00:55:35;;;;;;;14.20;8.75;;;9.60;99.90;;;;;;5006898;28;20260;-76
2022/10/03 00:58:15;;;;;;;12.50;8.15;;;9.60;99.90;;;;;;5017188;28;20194;-76
2022/10/03 01:00:48;;;;;;;10.45;7.30;;;9.40;99.90;;;;;;5004004;28;20184;-75
2022/10/03 01:03:29;;;;;;;8.07;6.82;;;9.20;99.90;;;;;;5005413;28;20197;-75
2022/10/03 01:06:18;;;;;;;8.85;6.78;;;9.10;99.90;;;;;;5004922;28;20205;-75
2022/10/03 01:09:20;;;;;;;13.60;8.13;;;9.10;99.90;;;;;;5004385;28;20252;-73
2022/10/03 01:12:33;;;;;;;9.05;7.18;;;9.20;99.90;;;;;;5002832;28;20199;-75
2022/10/03 01:15:42;;;;;;;15.30;8.63;;;9.20;99.90;;;;;;5016167;28;20223;-75
2022/10/03 01:18:21;;;;;;;10.30;8.82;;;9.20;99.90;;;;;;5004615;28;20202;-75
2022/10/03 01:20:53;;;;;;;11.23;8.68;;;9.20;99.90;;;;;;5005761;28;20182;-73
2022/10/03 01:23:51;;;;;;;14.52;8.25;;;9.20;99.90;;;;;;5004195;28;20284;-75
2022/10/03 01:26:41;;;;;;;13.38;8.10;;;9.20;99.90;;;;;;5006065;28;20177;-75
2022/10/03 01:32:27;;;;;;;8.95;7.00;;;9.00;99.90;;;;;;5004847;28;20217;-75
2022/10/03 01:35:10;;;;;;;10.15;7.88;;;8.90;99.90;;;;;;5016517;28;20165;-76
2022/10/03 01:38:05;;;;;;;8.35;7.13;;;8.80;99.90;;;;;;5000336;28;20200;-75
2022/10/03 01:40:43;;;;;;;10.52;8.48;;;8.70;99.90;;;;;;5001578;28;20197;-76
2022/10/03 01:43:33;;;;;;;15.65;8.32;;;8.70;99.90;;;;;;5003774;28;20197;-77
2022/10/03 01:46:35;;;;;;;14.23;8.02;;;8.80;99.90;;;;;;5006285;28;20177;-75
2022/10/03 01:49:14;;;;;;;9.48;8.05;;;9.00;99.90;;;;;;4970080;28;20204;-75
2022/10/03 01:52:02;;;;;;;10.68;9.00;;;9.10;99.90;;;;;;5002437;28;20181;-74
2022/10/03 01:54:38;;;;;;;10.85;9.20;;;9.10;99.90;;;;;;5005855;28;20189;-75
2022/10/03 01:57:36;;;;;;;9.70;8.02;;;9.10;99.90;;;;;;5004640;28;20236;-75
2022/10/03 02:00:13;;;;;;;10.10;8.48;;;9.10;99.90;;;;;;5002697;28;20565;-74
2022/10/03 02:02:48;;;;;;;14.60;8.98;;;9.00;99.90;;;;;;5005639;28;20217;-74
2022/10/03 02:05:35;;;;;;;13.40;7.90;;;9.00;99.90;;;;;;5003239;28;20662;-75
2022/10/03 02:08:16;;;;;;;8.70;7.25;;;9.00;99.90;;;;;;5003843;28;20303;-75
2022/10/03 02:11:27;;;;;;;13.10;8.85;;;9.00;99.90;;;;;;5005025;28;20185;-75
2022/10/03 02:14:14;;;;;;;15.55;9.68;;;9.10;99.90;;;;;;4993473;28;20643;-75
2022/10/03 02:16:50;;;;;;;12.30;9.25;;;9.10;99.90;;;;;;5004090;28;20288;-75
2022/10/03 02:19:25;;;;;;;12.13;10.15;;;9.10;99.90;;;;;;5004292;28;20177;-75
2022/10/03 02:21:53;;;;;;;12.02;10.05;;;9.20;99.90;;;;;;4999631;28;20193;-77
2022/10/03 02:24:50;;;;;;;14.10;9.85;;;9.10;99.90;;;;;;5002917;28;20173;-75
2022/10/03 02:27:24;;;;;;;15.05;10.80;;;9.10;99.90;;;;;;5003507;28;20181;-76
2022/10/03 02:30:46;;;;;;;16.48;10.65;;;9.20;99.90;;;;;;5004560;28;20177;-75
2022/10/03 02:33:35;;;;;;;17.95;9.75;;;9.20;99.90;;;;;;4988106;28;20666;-75
2022/10/03 02:36:13;;;;;;;13.73;10.10;;;9.20;99.90;;;;;;5004829;28;20179;-75
2022/10/03 02:38:58;;;;;;;15.10;9.68;;;9.10;99.90;;;;;;5006001;28;20170;-75
2022/10/03 02:41:52;;;;;;;14.85;9.73;;;9.10;99.90;;;;;;5019454;28;20174;-75
2022/10/03 02:44:55;;;;;;;16.98;10.77;;;9.10;99.90;;;;;;5005306;28;20200;-75
2022/10/03 02:47:33;;;;;;;13.57;9.63;;;9.10;99.90;;;;;;5004521;28;20200;-74
2022/10/03 02:50:34;;;;;;;13.82;10.50;;;9.20;99.90;;;;;;5004384;28;20188;-75
2022/10/03 02:53:06;;;;;;;18.40;11.05;;;9.30;99.90;;;;;;4971751;28;20217;-74
2022/10/03 02:56:03;;;;;;;19.45;10.93;;;9.30;99.90;;;;;;5018457;28;20250;-74
2022/10/03 02:58:51;;;;;;;17.13;11.38;;;9.30;99.90;;;;;;5003425;28;20213;-74
2022/10/03 03:01:34;;;;;;;15.50;9.98;;;9.30;99.90;;;;;;5002207;28;20177;-74
2022/10/03 03:04:37;;;;;;;18.60;12.32;;;9.40;99.90;;;;;;4997984;28;20173;-75
2022/10/03 03:07:22;;;;;;;17.50;11.05;;;9.50;99.90;;;;;;5000747;28;20184;-75
2022/10/03 03:10:18;;;;;;;17.23;10.27;;;9.50;99.90;;;;;;4998257;28;20597;-75
2022/10/03 03:13:06;;;;;;;14.70;10.93;;;9.60;99.90;;;;;;5004491;28;20205;-75
2022/10/03 03:15:55;;;;;;;14.75;9.68;;;9.50;99.90;;;;;;5003926;28;20176;-75
2022/10/03 03:18:40;;;;;;;16.80;11.65;;;9.50;99.90;;;;;;5003954;28;20236;-75
2022/10/03 03:21:32;;;;;;;15.80;9.77;;;9.60;99.90;;;;;;5006665;28;20178;-75
2022/10/03 03:24:25;;;;;;;13.48;11.18;;;9.60;99.90;;;;;;5007464;28;20317;-75
2022/10/03 03:27:12;;;;;;;15.57;10.10;;;9.80;99.90;;;;;;5005061;28;20169;-73
2022/10/03 03:29:42;;;;;;;14.30;10.20;;;9.80;99.90;;;;;;5005619;28;20192;-75
2022/10/03 03:32:17;;;;;;;13.48;9.88;;;9.80;99.90;;;;;;5006285;28;20279;-75
2022/10/03 03:34:54;;;;;;;16.80;11.35;;;9.80;99.90;;;;;;5004179;28;20182;-74
2022/10/03 03:37:34;;;;;;;14.20;10.23;;;9.90;99.90;;;;;;4999269;28;20338;-75
2022/10/03 03:40:00;;;;;;;15.02;10.60;;;9.80;99.90;;;;;;5003940;28;20181;-75
2022/10/03 03:42:47;;;;;;;20.73;10.48;;;9.90;99.90;;;;;;5001256;28;20208;-75
2022/10/03 03:45:33;;;;;;;14.98;10.23;;;9.90;99.90;;;;;;5001387;28;20169;-75
2022/10/03 03:48:29;;;;;;;13.65;9.88;;;9.90;99.90;;;;;;5002167;28;20214;-75
2022/10/03 03:51:48;;;;;;;13.70;10.45;;;10.00;99.90;;;;;;5006868;28;20205;-75
2022/10/03 03:54:24;;;;;;;14.20;9.75;;;9.90;99.90;;;;;;4988857;28;20213;-75
2022/10/03 03:57:17;;;;;;;19.35;10.00;;;9.90;99.90;;;;;;4997138;28;20225;-74
2022/10/03 04:00:04;;;;;;;12.32;10.07;;;10.00;99.90;;;;;;5001967;28;20165;-74
2022/10/03 04:02:45;;;;;;;10.52;8.88;;;9.90;99.90;;;;;;5006849;28;20203;-75
2022/10/03 04:05:25;;;;;;;11.05;9.77;;;9.80;99.90;;;;;;5002988;28;20256;-75
2022/10/03 04:08:22;;;;;;;13.05;9.18;;;9.90;99.90;;;;;;5007301;28;20185;-74
2022/10/03 04:10:59;;;;;;;13.75;9.20;;;10.00;99.90;;;;;;5003114;28;20189;-74
2022/10/03 04:13:35;;;;;;;12.18;9.77;;;10.00;99.90;;;;;;5006123;28;20298;-75
2022/10/03 04:16:10;;;;;;;12.80;10.73;;;10.10;99.90;;;;;;5007109;28;20242;-75
2022/10/03 04:19:03;;;;;;;20.92;9.95;;;10.10;99.90;;;;;;5005922;28;20201;-74
2022/10/03 04:21:34;;;;;;;13.02;9.90;;;10.00;99.90;;;;;;4999722;28;20186;-74
2022/10/03 04:24:42;;;;;;;16.48;9.13;;;10.10;99.90;;;;;;5005604;28;20230;-75
2022/10/03 04:27:30;;;;;;;15.50;9.80;;;10.10;99.90;;;;;;5001962;28;20220;-75
2022/10/03 04:30:13;;;;;;;13.07;9.30;;;10.10;99.90;;;;;;5003649;28;20186;-75
2022/10/03 04:32:57;;;;;;;11.80;9.82;;;9.90;99.90;;;;;;5002144;28;20249;-77
2022/10/03 04:35:47;;;;;;;14.55;9.52;;;9.80;99.90;;;;;;5001959;28;20192;-78
2022/10/03 04:38:37;;;;;;;19.10;9.98;;;9.80;99.90;;;;;;5006686;28;20197;-78
2022/10/03 04:41:34;;;;;;;17.10;8.75;;;9.70;99.90;;;;;;5011697;28;20566;-77
2022/10/03 04:44:30;;;;;;;14.98;9.75;;;9.80;99.90;;;;;;5014105;28;20859;-78
2022/10/03 04:47:21;;;;;;;12.30;9.40;;;9.80;99.90;;;;;;5008150;28;20682;-77
2022/10/03 04:50:07;;;;;;;15.82;9.88;;;9.80;99.90;;;;;;5020039;28;20834;-76
2022/10/03 04:52:41;;;;;;;11.82;9.30;;;9.90;99.90;;;;;;5004627;28;20240;-75
2022/10/03 04:55:42;;;;;;;11.55;7.95;;;9.80;99.90;;;;;;5006703;28;20184;-77
2022/10/03 04:58:46;;;;;;;11.00;8.80;;;9.80;99.90;;;;;;5022330;28;20195;-76
2022/10/03 05:01:31;;;;;;;10.60;8.25;;;9.70;99.90;;;;;;4984058;28;20184;-77
2022/10/03 05:04:04;;;;;;;12.80;8.77;;;9.70;99.90;;;;;;4985455;28;20192;-77
2022/10/03 05:07:03;;;;;;;12.52;8.85;;;9.60;99.90;;;;;;4996907;28;20302;-77
2022/10/03 05:09:31;;;;;;;15.23;9.10;;;9.70;99.90;;;;;;5013515;28;20178;-77
2022/10/03 05:12:13;;;;;;;8.77;7.70;;;9.70;99.90;;;;;;5012773;28;20257;-76
2022/10/03 05:14:57;;;;;;;10.95;8.95;;;9.60;99.90;;;;;;5007840;28;20228;-78
2022/10/03 05:17:29;;;;;;;13.77;9.43;;;9.70;99.90;;;;;;5020691;28;20205;-77
2022/10/03 05:20:13;;;;;;;13.45;8.55;;;9.80;99.90;;;;;;5009103;28;20173;-76
2022/10/03 05:22:50;;;;;;;14.40;8.25;;;9.90;99.90;;;;;;5008572;28;20229;-78
2022/10/03 05:25:38;;;;;;;12.45;8.60;;;10.00;99.90;;;;;;5016579;28;20632;-77
2022/10/03 05:28:45;;;;;;;14.18;8.95;;;10.00;99.90;;;;;;5025029;28;20225;-76
2022/10/03 05:31:34;;;;;;;14.18;9.05;;;10.00;99.90;;;;;;5021503;28;20188;-77
2022/10/03 05:34:20;;;;;;;15.30;8.50;;;9.90;99.90;;;;;;5013728;28;20319;-76
2022/10/03 05:37:31;;;;;;;14.15;9.00;;;10.00;99.90;;;;;;4997926;28;20193;-77
2022/10/03 05:40:03;;;;;;;11.52;8.82;;;10.00;99.90;;;;;;5020827;28;20173;-79
2022/10/03 05:42:34;;;;;;;17.48;8.75;;;10.10;99.90;;;;;;5019463;28;20208;-78
2022/10/03 05:45:20;;;;;;;13.25;8.32;;;10.20;99.90;;;;;;5027018;28;20169;-78
2022/10/03 05:47:51;;;;;;;13.07;8.35;;;10.30;99.90;;;;;;5019157;28;20750;-79
2022/10/03 05:50:35;;;;;;;23.25;8.85;;;10.40;99.90;;;;;;5013857;28;20184;-79
2022/10/03 05:53:22;;;;;;;13.43;8.20;;;10.30;99.90;;;;;;5018453;28;20213;-79
2022/10/03 05:56:12;;;;;;;11.25;8.48;;;10.40;99.90;;;;;;5023621;28;20204;-77
2022/10/03 05:58:40;;;;;;;12.73;8.45;;;10.50;99.90;;;;;;5024257;28;20659;-77
2022/10/03 06:01:36;;;;;;;11.85;8.25;;;10.60;99.90;;;;;;5005005;28;20182;-77
2022/10/03 06:04:21;;;;;;;14.90;8.20;;;10.60;99.90;;;;;;5008677;28;20178;-77
2022/10/03 06:07:13;;;;;;;12.00;8.63;;;10.50;99.90;;;;;;5006154;28;20269;-77
2022/10/03 06:09:47;;;;;;;11.63;8.00;;;10.70;99.90;;;;;;5010935;28;20180;-77
2022/10/03 06:12:31;;;;;;;8.98;7.53;;;10.80;99.90;;;;;;5013237;28;20597;-77
2022/10/03 06:15:01;;;;;;;14.38;8.30;;;10.80;99.90;;;;;;5022837;28;20187;-77
2022/10/03 06:17:42;;;;;;;9.38;8.00;;;10.80;99.90;;;;;;5008711;28;20201;-77
2022/10/03 06:20:21;;;;;;;9.52;7.25;;;10.90;99.90;;;;;;5006695;28;20181;-78
2022/10/03 06:23:11;;;;;;;9.27;8.27;;;11.00;99.90;;;;;;5026562;28;20193;-77
2022/10/03 06:25:59;;;;;;;13.48;8.40;;;11.00;99.90;;;;;;5009416;28;20236;-76
2022/10/03 06:28:50;;;;;;;15.45;9.05;;;11.10;99.90;;;;;;5007706;28;20602;-76
2022/10/03 06:32:00;;;;;;;15.95;8.63;;;11.10;99.90;;;;;;4998325;28;20726;-77
2022/10/03 06:34:31;;;;;;;8.48;7.68;;;11.10;99.90;;;;;;5002870;28;20201;-77
2022/10/03 06:37:28;;;;;;;13.68;9.38;;;11.20;99.90;;;;;;5000831;28;20233;-76
2022/10/03 06:40:22;;;;;;;10.07;8.30;;;11.20;99.90;;;;;;5000776;28;20205;-77
2022/10/03 06:42:59;;;;;;;9.48;8.18;;;11.30;99.90;;;;;;5005037;28;20854;-77
2022/10/03 06:46:17;;;;;;;8.80;7.72;;;11.40;99.90;;;;;;5005847;28;20196;-79
2022/10/03 06:49:11;;;;;;;10.30;9.30;;;11.50;99.90;;;;;;5003137;28;20224;-77
2022/10/03 06:52:14;;;;;;;13.68;8.82;;;11.50;99.90;;;;;;5013533;28;20185;-78
2022/10/03 06:55:03;;;;;;;18.30;8.90;;;11.40;99.90;;;;;;5013964;28;20176;-76
2022/10/03 06:57:50;;;;;;;9.63;8.15;;;11.40;99.90;;;;;;5007311;28;20526;-78
2022/10/03 07:00:16;;;;;;;14.52;9.55;;;11.50;99.90;;;;;;5032538;28;20199;-78
2022/10/03 07:02:55;;;;;;;11.60;9.77;;;11.50;99.90;;;;;;5017634;28;20202;-78
2022/10/03 07:05:48;;;;;;;10.75;9.50;;;11.60;99.90;;;;;;5009472;28;20173;-78
2022/10/03 07:08:29;;;;;;;13.88;10.65;;;11.80;99.90;;;;;;5014710;28;20268;-77
2022/10/03 07:11:09;;;;;;;14.13;8.82;;;12.00;99.90;;;;;;5016121;28;20182;-77
2022/10/03 07:14:11;;;;;;;12.80;8.35;;;12.10;99.90;;;;;;5021697;28;20220;-78
2022/10/03 07:16:58;;;;;;;12.05;8.32;;;12.30;99.90;;;;;;5018078;28;20262;-80
2022/10/03 07:19:54;;;;;;;10.38;7.80;;;12.30;99.90;;;;;;5014789;28;20170;-81
2022/10/03 07:22:25;;;;;;;8.75;7.03;;;12.50;99.90;;;;;;5017962;28;20251;-78
2022/10/03 07:25:08;;;;;;;11.55;6.95;;;12.60;99.90;;;;;;5023095;28;20178;-79
2022/10/03 07:27:43;;;;;;;8.85;6.43;;;12.60;99.90;;;;;;5023547;28;20299;-80
2022/10/03 07:30:20;;;;;;;8.13;6.22;;;12.80;99.90;;;;;;5026804;28;20180;-76
2022/10/03 07:33:04;;;;;;;10.65;5.57;;;12.90;99.90;;;;;;5013533;28;20236;-77
2022/10/03 07:38:58;;;;;;;8.77;5.70;;;13.30;99.90;;;;;;5005860;28;20251;-76
2022/10/03 07:41:52;;;;;;;6.10;5.50;;;13.60;99.90;;;;;;5007001;28;20243;-76
2022/10/03 07:44:56;;;;;;;8.30;4.97;;;13.70;99.90;;;;;;5006284;28;20173;-76
2022/10/03 07:47:52;;;;;;;6.68;4.75;;;13.70;99.90;;;;;;5000681;28;20559;-74
2022/10/03 07:50:21;;;;;;;11.18;4.50;;;13.80;99.90;;;;;;5003293;28;20232;-76
2022/10/03 07:53:14;;;;;;;6.88;4.43;;;13.90;99.90;;;;;;5003030;28;20580;-77
2022/10/03 07:56:04;;;;;;;6.22;4.32;;;13.70;99.90;;;;;;5000774;28;20190;-77
2022/10/03 07:59:07;;;;;;;6.18;3.95;;;13.40;99.90;;;;;;5003709;28;20205;-75
2022/10/03 08:01:40;;;;;;;6.05;4.38;;;13.20;99.90;;;;;;5004291;28;20183;-77
2022/10/03 08:04:25;;;;;;;8.50;5.13;;;13.20;99.90;;;;;;5011676;28;20656;-75
2022/10/03 08:07:28;;;;;;;6.97;4.55;;;12.90;99.90;;;;;;5015439;28;20185;-76
2022/10/03 08:10:31;;;;;;;5.50;4.15;;;12.90;99.90;;;;;;5004443;28;20176;-77
2022/10/03 08:13:18;;;;;;;7.40;4.25;;;13.00;99.90;;;;;;5015910;28;20234;-83
2022/10/03 08:16:04;;;;;;;11.80;3.88;;;13.10;99.90;;;;;;5018492;28;20179;-83
2022/10/03 08:19:14;;;;;;;5.47;3.35;;;13.00;99.90;;;;;;5019666;28;20209;-82
2022/10/03 08:21:57;;;;;;;6.00;3.00;;;13.00;99.90;;;;;;5017987;28;20178;-84
2022/10/03 08:24:29;;;;;;;5.22;3.15;;;12.80;99.90;;;;;;5029640;28;20664;-83
2022/10/03 08:27:10;;;;;;;5.63;3.15;;;12.70;99.90;;;;;;5014364;28;20190;-85
2022/10/03 08:30:17;;;;;;;7.70;4.32;;;12.70;99.90;;;;;;5011930;28;20267;-78
2022/10/03 08:32:45;;;;;;;4.43;2.60;;;12.70;99.90;;;;;;4994100;28;20597;-78
2022/10/03 08:35:29;;;;;;;2.63;2.40;;;12.70;99.90;;;;;;5008268;28;20264;-78
2022/10/03 08:38:14;;;;;;;3.47;2.65;;;12.80;99.90;;;;;;5002720;28;20201;-77
2022/10/03 08:40:55;;;;;;;3.60;2.40;;;13.10;99.90;;;;;;5008455;28;20633;-77
2022/10/03 08:43:32;;;;;;;3.95;2.20;;;13.40;99.90;;;;;;5023336;28;20196;-75
2022/10/03 08:46:35;;;;;;;6.80;2.60;;;14.20;99.90;;;;;;5014372;28;20184;-76
2022/10/03 08:49:13;;;;;;;4.25;2.50;;;14.70;99.90;;;;;;5025558;28;20663;-79
2022/10/03 08:52:20;;;;;;;3.88;2.45;;;14.50;99.90;;;;;;5011748;28;20660;-77
2022/10/03 08:55:11;;;;;;;4.18;2.22;;;14.20;99.90;;;;;;5017169;28;20172;-77
2022/10/03 08:58:08;;;;;;;4.72;2.20;;;13.90;99.90;;;;;;5023069;28;20204;-76
2022/10/03 09:01:17;;;;;;;4.90;1.83;;;13.70;99.90;;;;;;5000778;28;20181;-78
2022/10/03 09:04:01;;;;;;;4.22;1.85;;;15.20;99.90;;;;;;5027135;28;20259;-76
2022/10/03 09:06:46;;;;;;;4.57;1.73;;;17.90;99.90;;;;;;4998002;28;20190;-75
2022/10/03 09:09:45;;;;;;;2.17;1.50;;;20.10;99.90;;;;;;4990249;28;20181;-77
2022/10/03 09:12:23;;;;;;;3.13;1.48;;;22.40;99.90;;;;;;4998536;28;20196;-77
2022/10/03 09:15:03;;;;;;;3.55;1.35;;;24.50;99.90;;;;;;4998273;28;20690;-77
2022/10/03 09:18:04;;;;;;;3.47;1.17;;;25.90;92.60;;;;;;5022019;28;20234;-77
2022/10/03 09:20:52;;;;;;;2.60;1.48;;;25.90;78.90;;;;;;4999993;28;20264;-78
2022/10/03 09:23:44;;;;;;;1.85;1.23;;;26.30;75.10;;;;;;5010754;28;20205;-78
2022/10/03 09:26:26;;;;;;;2.22;1.38;;;26.70;71.50;;;;;;5007138;28;20242;-77
2022/10/03 09:28:55;;;;;;;2.22;1.42;;;26.70;70.10;;;;;;5003124;28;20200;-77
2022/10/03 09:31:51;;;;;;;2.83;1.30;;;27.60;68.30;;;;;;5017106;28;20665;-79
2022/10/03 09:34:42;;;;;;;2.47;1.55;;;28.50;64.70;;;;;;5022940;28;20173;-78
2022/10/03 09:38:12;;;;;;;3.92;1.65;;;28.50;63.30;;;;;;5022623;28;20200;-78
2022/10/03 09:40:59;;;;;;;3.08;1.85;;;28.80;60.60;;;;;;4999128;28;20190;-78
2022/10/03 09:44:03;;;;;;;3.78;1.60;;;28.40;58.90;;;;;;5009980;28;20660;-78
2022/10/03 09:47:21;;;;;;;2.10;1.15;;;28.50;57.50;;;;;;5004075;28;20191;-77
2022/10/03 09:49:55;;;;;;;1.00;0.90;;;28.80;57.00;;;;;;5024564;28;20176;-77
2022/10/03 09:52:26;;;;;;;3.75;1.83;;;28.50;56.60;;;;;;5022882;28;20209;-77
2022/10/03 09:55:35;;;;;;;4.40;1.40;;;28.80;57.50;;;;;;5008029;28;20224;-77
2022/10/03 09:58:18;;;;;;;3.45;1.30;;;29.60;56.00;;;;;;4999975;28;20201;-77
2022/10/03 10:01:02;;;;;;;5.13;2.33;;;30.30;54.10;;;;;;4983883;28;20182;-76
2022/10/03 10:03:46;;;;;;;4.22;3.17;;;30.90;53.70;;;;;;4994362;28;20217;-74
2022/10/03 10:06:40;;;;;;;2.38;1.80;;;30.70;52.60;;;;;;5008384;28;20176;-74
2022/10/03 10:09:24;;;;;;;4.72;2.58;;;31.60;52.60;;;;;;5003800;28;20595;-75
2022/10/03 10:12:15;;;;;;;3.42;2.17;;;32.10;49.60;;;;;;5005921;28;20659;-75
2022/10/03 10:15:19;;;;;;;5.53;2.95;;;30.60;50.10;;;;;;5012216;28;20352;-74
2022/10/03 10:18:12;;;;;;;3.88;1.77;;;29.60;52.90;;;;;;5002598;28;21015;-75
2022/10/03 10:21:15;;;;;;;1.38;1.27;;;29.40;53.20;;;;;;5005414;28;20176;-75
2022/10/03 10:23:56;;;;;;;2.28;1.88;;;28.80;53.50;;;;;;5013428;28;20207;-75
2022/10/03 10:26:46;;;;;;;5.05;2.03;;;29.50;53.60;;;;;;5007518;28;20172;-75
2022/10/03 10:29:31;;;;;;;3.97;2.97;;;30.00;52.00;;;;;;5005463;28;20181;-74
2022/10/03 10:32:16;;;;;;;2.17;1.98;;;30.60;50.50;;;;;;5000458;28;20203;-75
2022/10/03 10:35:04;;;;;;;3.67;1.83;;;31.10;50.10;;;;;;5010077;28;20270;-75
2022/10/03 10:37:54;;;;;;;3.42;1.38;;;29.90;51.70;;;;;;5003407;28;20192;-76
2022/10/03 10:40:35;;;;;;;2.75;1.40;;;28.50;53.60;;;;;;5020469;28;20178;-77
2022/10/03 10:43:19;;;;;;;3.22;1.73;;;28.80;53.10;;;;;;5021977;28;20197;-77
2022/10/03 10:46:23;;;;;;;0.98;0.98;;;29.70;53.10;;;;;;5001849;28;20185;-76
2022/10/03 10:49:16;;;;;;;3.40;1.88;;;30.30;51.60;;;;;;4998072;28;20174;-77
2022/10/03 10:52:18;;;;;;;2.35;1.13;;;31.40;50.80;;;;;;5003086;28;20250;-78
2022/10/03 10:55:10;;;;;;;2.10;1.13;;;32.20;48.60;;;;;;5007970;28;20188;-76
2022/10/03 10:58:00;;;;;;;1.80;1.23;;;33.30;46.30;;;;;;4985773;28;20217;-75
2022/10/03 11:00:31;;;;;;;0.90;0.80;;;33.80;44.80;;;;;;5003007;28;20208;-76
2022/10/03 11:03:44;;;;;;;1.52;1.15;;;33.90;44.90;;;;;;5004420;28;20631;-77
2022/10/03 11:06:28;;;;;;;1.42;1.25;;;32.60;45.40;;;;;;5009167;28;20562;-77
2022/10/03 11:09:05;;;;;;;2.38;1.27;;;29.90;47.50;;;;;;5000767;28;20235;-76
2022/10/03 11:11:58;;;;;;;1.48;1.33;;;27.20;52.80;;;;;;5003044;28;20181;-77
2022/10/03 11:14:56;;;;;;;2.78;1.33;;;25.40;54.90;;;;;;5002630;28;20823;-76
2022/10/03 11:17:25;;;;;;;1.40;1.30;;;24.00;59.40;;;;;;5007467;28;20209;-80
2022/10/03 11:20:46;;;;;;;2.28;1.33;;;23.60;59.20;;;;;;5010610;28;20189;-79
2022/10/03 11:23:42;;;;;;;1.42;1.33;;;22.60;60.40;;;;;;5004253;28;20232;-77
2022/10/03 11:26:42;;;;;;;2.45;1.75;;;21.40;63.00;;;;;;5016504;28;20178;-78
2022/10/03 11:29:16;;;;;;;1.55;1.45;;;20.90;66.40;;;;;;5022945;28;20192;-78
2022/10/03 11:32:20;;;;;;;3.38;1.63;;;22.90;64.40;;;;;;5013586;28;20186;-79
2022/10/03 11:35:23;;;;;;;6.97;1.80;;;26.10;58.00;;;;;;5024639;28;20174;-75
2022/10/03 11:37:55;;;;;;;2.30;1.60;;;26.50;55.50;;;;;;5015943;28;20192;-75
2022/10/03 11:40:23;;;;;;;1.85;1.40;;;25.30;57.40;;;;;;5012378;28;20609;-77
2022/10/03 11:43:24;;;;;;;1.92;1.60;;;24.00;59.60;;;;;;5027540;28;20250;-78
2022/10/03 11:46:28;;;;;;;1.65;1.20;;;22.50;63.60;;;;;;5017082;28;20199;-77
2022/10/03 11:49:11;;;;;;;3.33;1.52;;;21.20;66.50;;;;;;5021217;28;20831;-78
2022/10/03 11:51:52;;;;;;;1.58;1.38;;;20.50;67.30;;;;;;5015931;28;20726;-77
2022/10/03 11:54:18;;;;;;;1.48;1.30;;;20.10;69.00;;;;;;5007375;28;20184;-77
2022/10/03 11:56:49;;;;;;;1.45;1.35;;;20.30;69.60;;;;;;5021670;28;20407;-77
2022/10/03 11:59:33;;;;;;;2.38;1.27;;;21.70;68.50;;;;;;5008106;28;20182;-77
2022/10/03 12:02:39;;;;;;;1.77;1.27;;;24.30;61.50;;;;;;5008207;28;20611;-77
2022/10/03 12:05:33;;;;;;;2.53;1.10;;;24.90;60.00;;;;;;5013006;28;20567;-77
2022/10/03 12:11:52;;;;;;;2.00;1.10;;;28.70;53.70;;;;;;5009392;28;20611;-74
2022/10/03 12:14:27;;;;;;;0.88;0.88;;;29.60;51.30;;;;;;4996002;28;20279;-75
2022/10/03 12:17:05;;;;;;;2.33;1.10;;;28.30;50.70;;;;;;5004937;28;20183;-73
2022/10/03 12:19:44;;;;;;;2.05;1.20;;;26.70;53.40;;;;;;5009788;28;20181;-74
2022/10/03 12:22:48;;;;;;;2.42;1.10;;;25.40;56.50;;;;;;5007021;28;20204;-74
2022/10/03 12:25:23;;;;;;;1.10;1.00;;;24.10;58.30;;;;;;5007240;28;20831;-78
2022/10/03 12:28:14;;;;;;;1.30;1.20;;;23.10;59.80;;;;;;5001984;28;20189;-77
2022/10/03 12:31:18;;;;;;;1.48;1.20;;;22.20;62.10;;;;;;5006335;28;20273;-77
2022/10/03 12:33:55;;;;;;;2.05;1.23;;;21.50;63.70;;;;;;5005927;28;20216;-76
2022/10/03 12:36:31;;;;;;;3.17;1.40;;;21.30;65.10;;;;;;5014009;28;20176;-77
2022/10/03 12:39:18;;;;;;;3.05;1.42;;;22.10;62.80;;;;;;5009336;28;20529;-77
2022/10/03 12:42:05;;;;;;;1.67;1.48;;;22.20;63.80;;;;;;5009824;28;20177;-77
2022/10/03 12:45:02;;;;;;;3.22;1.60;;;21.90;64.10;;;;;;5002842;28;20188;-77
2022/10/03 12:47:51;;;;;;;3.70;1.77;;;21.80;64.10;;;;;;5008092;28;20177;-77
2022/10/03 12:50:41;;;;;;;1.80;1.70;;;21.10;66.00;;;;;;5013887;28;20252;-76
2022/10/03 12:53:16;;;;;;;2.00;1.50;;;20.80;67.80;;;;;;5009209;28;20204;-76
2022/10/03 12:55:56;;;;;;;2.55;1.38;;;20.30;68.60;;;;;;5011352;28;20188;-77
2022/10/03 12:58:27;;;;;;;3.80;1.20;;;19.90;69.70;;;;;;5005746;28;20761;-77
2022/10/03 13:01:49;;;;;;;1.50;1.20;;;19.60;71.70;;;;;;5015348;28;20554;-76
2022/10/03 13:04:39;;;;;;;2.30;1.50;;;19.40;72.40;;;;;;4984133;28;20193;-77
2022/10/03 13:07:32;;;;;;;2.22;1.58;;;18.90;76.60;;;;;;5011153;28;20180;-76
2022/10/03 13:10:28;;;;;;;3.20;1.48;;;18.90;74.30;;;;;;5006755;28;20551;-76
2022/10/03 13:13:17;;;;;;;2.78;1.65;;;19.00;74.10;;;;;;5009294;28;20213;-76
2022/10/03 13:16:10;;;;;;;3.33;1.70;;;18.60;76.90;;;;;;5001354;28;20201;-76
2022/10/03 13:18:48;;;;;;;3.58;1.65;;;18.60;75.50;;;;;;5003541;28;20201;-76
2022/10/03 13:21:25;;;;;;;2.53;1.63;;;18.40;78.60;;;;;;5008220;28;20188;-76
2022/10/03 13:23:57;;;;;;;2.28;1.13;;;18.20;78.90;;;;;;5008936;28;20189;-76
2022/10/03 13:26:45;;;;;;;1.55;1.05;;;18.10;79.20;;;;;;5008657;28;21148;-77
2022/10/03 13:29:19;;;;;;;3.40;1.65;;;18.10;79.80;;;;;;5011951;28;20173;-77
2022/10/03 13:32:06;;;;;;;2.55;1.67;;;18.10;81.10;;;;;;5007988;28;20280;-77
2022/10/03 13:34:58;;;;;;;4.60;1.85;;;18.30;81.70;;;;;;5000991;28;20188;-78
2022/10/03 13:37:43;;;;;;;2.25;1.92;;;18.50;82.50;;;;;;5001272;28;20197;-78
2022/10/03 13:40:14;;;;;;;4.00;2.15;;;18.40;82.10;;;;;;5004141;28;20184;-77
2022/10/03 13:42:52;;;;;;;2.30;1.35;;;18.50;81.40;;;;;;5006754;28;20202;-78
2022/10/03 13:45:24;;;;;;;2.35;1.73;;;18.20;82.60;;;;;;5010449;28;20199;-77
2022/10/03 13:47:58;;;;;;;1.77;1.60;;;18.00;84.60;;;;;;5013946;28;20187;-77
2022/10/03 13:50:41;;;;;;;3.05;1.67;;;17.90;85.20;;;;;;5010913;28;20176;-77
2022/10/03 13:53:29;;;;;;;2.50;1.92;;;17.80;84.80;;;;;;4998311;28;20277;-78
2022/10/03 13:56:00;;;;;;;2.50;1.50;;;17.70;87.10;;;;;;5011538;28;20192;-78
2022/10/03 13:58:53;;;;;;;5.03;1.70;;;17.60;87.00;;;;;;5011769;28;20205;-77
2022/10/03 14:01:57;;;;;;;2.53;1.50;;;17.40;87.50;;;;;;5002977;28;20260;-78
2022/10/03 14:04:35;;;;;;;3.83;2.20;;;17.40;88.40;;;;;;4996119;28;20816;-78
2022/10/03 14:07:13;;;;;;;2.75;1.90;;;17.40;88.10;;;;;;4999903;28;20185;-78
2022/10/03 14:10:12;;;;;;;1.88;1.65;;;17.30;88.20;;;;;;5001021;28;20280;-77
2022/10/03 14:12:52;;;;;;;2.13;1.70;;;17.00;89.80;;;;;;5004662;28;20595;-75
2022/10/03 14:15:43;;;;;;;7.10;2.00;;;16.70;90.70;;;;;;5018294;28;20246;-76
2022/10/03 14:18:19;;;;;;;1.77;1.67;;;16.60;91.70;;;;;;5006317;28;20207;-75
2022/10/03 14:21:11;;;;;;;2.80;1.90;;;16.70;92.90;;;;;;5014383;28;20211;-76
2022/10/03 14:23:49;;;;;;;2.58;2.35;;;16.90;91.70;;;;;;5001744;28;20251;-75
2022/10/03 14:26:24;;;;;;;2.88;1.60;;;17.10;91.30;;;;;;5005591;28;20240;-75
2022/10/03 14:29:09;;;;;;;5.03;1.80;;;17.10;90.20;;;;;;5001358;28;20192;-75
2022/10/03 14:31:56;;;;;;;2.70;1.50;;;17.20;91.20;;;;;;5005194;28;20184;-75
2022/10/03 14:34:33;;;;;;;2.60;1.65;;;17.10;90.70;;;;;;5006270;28;20482;-75
2022/10/03 14:37:04;;;;;;;5.63;2.00;;;16.80;91.00;;;;;;5003551;28;20197;-75
2022/10/03 14:39:58;;;;;;;3.47;1.88;;;16.70;92.40;;;;;;5000445;28;20227;-75